createdAt,value
2019-05-15T00:00:13.649Z,6.93
2019-05-15T00:02:42.147Z,6.91
2019-05-15T00:05:10.863Z,6.87
2019-05-15T00:07:40.562Z,6.83
2019-05-15T00:10:09.732Z,6.82
2019-05-15T00:12:39.442Z,6.79
2019-05-15T00:15:09.261Z,6.75
2019-05-15T00:17:39.355Z,6.72
2019-05-15T00:20:10.030Z,6.68
2019-05-15T00:22:39.267Z,6.64
2019-05-15T00:25:09.301Z,6.63
2019-05-15T00:27:38.812Z,6.62
2019-05-15T00:30:10.822Z,6.59
2019-05-15T00:32:39.617Z,6.59
2019-05-15T00:35:09.419Z,6.57
2019-05-15T00:37:38.862Z,6.54
2019-05-15T00:40:08.973Z,6.53
2019-05-15T00:42:38.476Z,6.52
2019-05-15T00:45:09.466Z,6.48
2019-05-15T00:47:39.653Z,6.46
2019-05-15T00:50:09.517Z,6.41
2019-05-15T00:52:39.234Z,6.39
2019-05-15T00:55:09.074Z,6.38
2019-05-15T00:57:39.145Z,6.36
2019-05-15T01:00:09.058Z,6.33
2019-05-15T01:02:38.886Z,6.29
2019-05-15T01:05:08.387Z,6.27
2019-05-15T01:07:38.911Z,6.26
2019-05-15T01:10:09.804Z,6.20
2019-05-15T01:12:38.639Z,6.18
2019-05-15T01:15:10.854Z,6.14
2019-05-15T01:17:39.587Z,6.11
2019-05-15T01:20:08.772Z,6.08
2019-05-15T01:22:39.428Z,6.06
2019-05-15T01:25:08.719Z,6.04
2019-05-15T01:27:38.647Z,6.01
2019-05-15T01:30:09.054Z,5.99
2019-05-15T01:32:39.565Z,5.97
2019-05-15T01:35:09.446Z,5.94
2019-05-15T01:37:39.301Z,5.94
2019-05-15T01:40:08.997Z,5.91
2019-05-15T01:42:38.574Z,5.87
2019-05-15T01:45:08.770Z,5.84
2019-05-15T01:47:38.968Z,5.80
2019-05-15T01:50:09.518Z,5.77
2019-05-15T01:52:39.033Z,5.76
2019-05-15T01:55:09.229Z,5.75
2019-05-15T01:57:38.720Z,5.73
2019-05-15T02:00:09.497Z,5.70
2019-05-15T02:02:38.911Z,5.65
2019-05-15T02:05:09.027Z,5.59
2019-05-15T02:07:39.079Z,5.55
2019-05-15T02:10:09.138Z,5.50
2019-05-15T02:12:38.760Z,5.45
2019-05-15T02:15:08.734Z,5.40
2019-05-15T02:17:39.324Z,5.37
2019-05-15T02:20:08.722Z,5.32
2019-05-15T02:22:41.958Z,5.30
2019-05-15T02:25:08.699Z,5.28
2019-05-15T02:27:39.188Z,5.26
2019-05-15T02:30:22.276Z,5.23
2019-05-15T02:32:39.689Z,5.21
2019-05-15T02:35:09.875Z,5.18
2019-05-15T02:37:41.081Z,5.15
2019-05-15T02:40:10.638Z,5.10
2019-05-15T02:42:40.272Z,5.05
2019-05-15T02:45:10.472Z,5.00
2019-05-15T02:47:39.994Z,4.94
2019-05-15T02:50:11.110Z,4.90
2019-05-15T02:52:44.717Z,4.87
2019-05-15T02:55:10.484Z,4.83
2019-05-15T02:57:39.564Z,4.81
2019-05-15T03:00:10.856Z,4.78
2019-05-15T03:02:41.303Z,4.79
2019-05-15T03:05:10.468Z,4.79
2019-05-15T03:07:40.137Z,4.79
2019-05-15T03:10:10.460Z,4.77
2019-05-15T03:12:40.726Z,4.76
2019-05-15T03:15:10.634Z,4.75
2019-05-15T03:17:40.761Z,4.74
2019-05-15T03:20:11.281Z,4.73
2019-05-15T03:22:40.773Z,4.73
2019-05-15T03:25:10.909Z,4.71
2019-05-15T03:27:40.431Z,4.70
2019-05-15T03:30:13.152Z,4.69
2019-05-15T03:32:52.496Z,4.67
2019-05-15T03:35:14.108Z,4.67
2019-05-15T03:37:40.684Z,4.65
2019-05-15T03:40:10.533Z,4.65
2019-05-15T03:42:40.084Z,4.64
2019-05-15T03:45:10.397Z,4.63
2019-05-15T03:47:40.177Z,4.64
2019-05-15T03:50:10.946Z,4.64
2019-05-15T03:52:39.990Z,4.63
2019-05-15T03:55:10.846Z,4.62
2019-05-15T03:57:40.285Z,4.64
2019-05-15T04:00:10.394Z,4.64
2019-05-15T04:02:39.616Z,4.64
2019-05-15T04:05:11.774Z,4.65
2019-05-15T04:07:40.354Z,4.67
2019-05-15T04:10:10.100Z,4.69
2019-05-15T04:12:40.727Z,4.71
2019-05-15T04:15:10.700Z,4.73
2019-05-15T04:17:40.341Z,4.74
2019-05-15T04:20:10.323Z,4.77
2019-05-15T04:22:40.217Z,4.81
2019-05-15T04:25:10.325Z,4.85
2019-05-15T04:27:41.066Z,4.88
2019-05-15T04:30:11.187Z,4.91
2019-05-15T04:32:40.634Z,4.96
2019-05-15T04:35:09.818Z,5.02
2019-05-15T04:37:40.707Z,5.09
2019-05-15T04:40:09.597Z,5.16
2019-05-15T04:42:39.831Z,5.24
2019-05-15T04:45:10.214Z,5.32
2019-05-15T04:47:39.829Z,5.41
2019-05-15T04:50:09.633Z,5.50
2019-05-15T04:52:42.516Z,5.59
2019-05-15T04:55:10.212Z,5.67
2019-05-15T04:57:40.009Z,5.78
2019-05-15T05:00:10.257Z,5.89
2019-05-15T05:02:39.859Z,5.98
2019-05-15T05:05:10.807Z,6.07
2019-05-15T05:07:39.943Z,6.16
2019-05-15T05:10:10.086Z,6.26
2019-05-15T05:12:41.581Z,6.37
2019-05-15T05:15:09.555Z,6.46
2019-05-15T05:17:39.118Z,6.57
2019-05-15T05:20:08.575Z,6.65
2019-05-15T05:22:39.338Z,6.73
2019-05-15T05:25:08.315Z,6.79
2019-05-15T05:27:38.420Z,6.87
2019-05-15T05:30:08.717Z,6.91
2019-05-15T05:32:39.002Z,6.96
2019-05-15T05:35:09.519Z,7.00
2019-05-15T05:37:38.887Z,7.03
2019-05-15T05:40:08.558Z,7.08
2019-05-15T05:42:39.024Z,7.15
2019-05-15T05:45:09.402Z,7.21
2019-05-15T05:47:38.292Z,7.29
2019-05-15T05:50:08.031Z,7.34
2019-05-15T05:52:38.904Z,7.38
2019-05-15T05:55:08.788Z,7.41
2019-05-15T05:57:38.205Z,7.45
2019-05-15T06:00:09.331Z,7.50
2019-05-15T06:02:46.829Z,7.57
2019-05-15T06:05:08.504Z,7.65
2019-05-15T06:07:38.648Z,7.76
2019-05-15T06:10:08.889Z,7.87
2019-05-15T06:12:39.017Z,7.99
2019-05-15T06:15:08.958Z,8.12
2019-05-15T06:17:39.176Z,8.25
2019-05-15T06:20:08.284Z,8.40
2019-05-15T06:22:38.781Z,8.56
2019-05-15T06:25:11.359Z,8.71
2019-05-15T06:27:39.116Z,8.86
2019-05-15T06:30:08.925Z,9.03
2019-05-15T06:32:39.812Z,9.21
2019-05-15T06:35:08.965Z,9.40
2019-05-15T06:37:39.656Z,9.55
2019-05-15T06:40:08.623Z,9.70
2019-05-15T06:42:39.508Z,9.83
2019-05-15T06:45:08.216Z,9.97
2019-05-15T06:47:39.193Z,10.10
2019-05-15T06:50:10.320Z,10.24
2019-05-15T06:52:38.900Z,10.42
2019-05-15T06:55:09.348Z,10.63
2019-05-15T06:57:39.786Z,10.83
2019-05-15T07:00:08.972Z,11.06
2019-05-15T07:02:38.203Z,11.29
2019-05-15T07:05:08.202Z,11.54
2019-05-15T07:07:38.701Z,11.85
2019-05-15T07:10:09.010Z,12.12
2019-05-15T07:12:39.095Z,12.33
2019-05-15T07:15:09.448Z,12.47
2019-05-15T07:17:39.194Z,12.58
2019-05-15T07:20:09.114Z,12.65
2019-05-15T07:22:39.166Z,12.68
2019-05-15T07:25:09.022Z,12.65
2019-05-15T07:27:38.963Z,12.65
2019-05-15T07:30:12.160Z,12.68
2019-05-15T07:32:40.428Z,12.75
2019-05-15T07:35:09.955Z,12.80
2019-05-15T07:37:38.985Z,12.87
2019-05-15T07:40:09.646Z,12.93
2019-05-15T07:42:38.877Z,13.00
2019-05-15T07:45:09.024Z,13.05
2019-05-15T07:47:38.701Z,13.12
2019-05-15T07:50:10.717Z,13.20
2019-05-15T07:52:40.798Z,13.24
2019-05-15T07:55:10.061Z,13.32
2019-05-15T07:57:39.616Z,13.44
2019-05-15T08:00:10.825Z,13.54
2019-05-15T08:02:39.446Z,13.61
2019-05-15T08:05:09.993Z,13.72
2019-05-15T08:07:39.138Z,13.84
2019-05-15T08:10:08.909Z,13.92
2019-05-15T08:12:39.146Z,13.96
2019-05-15T08:15:10.591Z,14.04
2019-05-15T08:17:58.552Z,14.13
2019-05-15T08:20:11.729Z,14.26
2019-05-15T08:22:40.191Z,14.39
2019-05-15T08:25:13.096Z,14.50
2019-05-15T08:27:39.853Z,14.59
2019-05-15T08:30:11.089Z,14.67
2019-05-15T08:32:39.643Z,14.75
2019-05-15T08:35:12.648Z,14.82
2019-05-15T08:37:40.640Z,14.81
2019-05-15T08:40:09.944Z,14.85
2019-05-15T08:42:41.627Z,14.92
2019-05-15T08:45:09.937Z,14.95
2019-05-15T08:47:38.714Z,15.01
2019-05-15T08:50:09.857Z,15.11
2019-05-15T08:52:39.380Z,15.22
2019-05-15T08:55:09.054Z,15.35
2019-05-15T08:57:38.396Z,15.46
2019-05-15T09:00:09.689Z,15.56
2019-05-15T09:02:38.419Z,15.62
2019-05-15T09:05:08.734Z,15.74
2019-05-15T09:07:38.410Z,15.86
2019-05-15T09:10:09.883Z,15.99
2019-05-15T09:12:39.154Z,16.15
2019-05-15T09:15:10.472Z,16.28
2019-05-15T09:17:39.857Z,16.34
2019-05-15T09:20:12.687Z,16.35
2019-05-15T09:22:41.136Z,16.38
2019-05-15T09:25:10.643Z,16.46
2019-05-15T09:27:39.080Z,16.53
2019-05-15T09:30:09.857Z,16.48
2019-05-15T09:32:39.409Z,16.31
2019-05-15T09:35:09.169Z,16.11
2019-05-15T09:37:38.752Z,16.01
2019-05-15T09:40:08.789Z,16.03
2019-05-15T09:42:38.794Z,16.16
2019-05-15T09:45:09.093Z,16.41
2019-05-15T09:47:39.514Z,16.60
2019-05-15T09:50:09.982Z,16.78
2019-05-15T09:52:39.186Z,16.96
2019-05-15T09:55:09.820Z,17.12
2019-05-15T09:57:38.962Z,17.12
2019-05-15T10:00:10.170Z,17.01
2019-05-15T10:02:39.565Z,16.80
2019-05-15T10:05:11.706Z,16.63
2019-05-15T10:07:40.335Z,16.62
2019-05-15T10:10:09.912Z,16.81
2019-05-15T10:12:38.901Z,17.11
2019-05-15T10:15:11.413Z,17.38
2019-05-15T10:17:38.736Z,17.48
2019-05-15T10:20:09.220Z,17.33
2019-05-15T10:22:37.802Z,17.12
2019-05-15T10:25:08.352Z,17.04
2019-05-15T10:27:39.865Z,17.09
2019-05-15T10:30:10.491Z,17.19
2019-05-15T10:32:41.597Z,17.24
2019-05-15T10:35:24.477Z,17.30
2019-05-15T10:37:44.265Z,17.45
2019-05-15T10:40:13.269Z,17.63
2019-05-15T10:42:41.807Z,17.80
2019-05-15T10:45:12.305Z,17.97
2019-05-15T10:47:40.794Z,18.17
2019-05-15T10:50:10.343Z,18.24
2019-05-15T10:52:39.160Z,18.09
2019-05-15T10:55:09.733Z,17.89
2019-05-15T10:57:42.923Z,17.72
2019-05-15T11:00:09.506Z,17.73
2019-05-15T11:02:39.389Z,17.84
2019-05-15T11:05:09.931Z,17.81
2019-05-15T11:07:39.396Z,17.66
2019-05-15T11:10:08.945Z,17.50
2019-05-15T11:12:37.867Z,17.40
2019-05-15T11:15:11.027Z,17.35
2019-05-15T11:17:38.766Z,17.45
2019-05-15T11:20:08.440Z,17.46
2019-05-15T11:22:42.214Z,17.38
2019-05-15T11:25:09.967Z,17.34
2019-05-15T11:27:39.235Z,17.48
2019-05-15T11:30:09.467Z,17.78
2019-05-15T11:32:39.090Z,18.21
2019-05-15T11:35:09.352Z,18.59
2019-05-15T11:37:45.298Z,18.86
2019-05-15T11:40:10.735Z,18.87
2019-05-15T11:42:39.771Z,18.68
2019-05-15T11:45:09.655Z,18.36
2019-05-15T11:47:40.003Z,18.06
2019-05-15T11:50:10.049Z,17.91
2019-05-15T11:52:40.473Z,17.87
2019-05-15T11:55:10.770Z,17.90
2019-05-15T11:57:46.814Z,17.93
2019-05-15T12:00:17.144Z,18.00
2019-05-15T12:02:41.600Z,18.17
2019-05-15T12:05:11.599Z,18.44
2019-05-15T12:07:40.210Z,18.72
2019-05-15T12:10:10.338Z,19.04
2019-05-15T12:12:39.574Z,19.26
2019-05-15T12:15:09.356Z,19.39
2019-05-15T12:17:39.136Z,19.31
2019-05-15T12:20:10.734Z,19.11
2019-05-15T12:22:39.256Z,18.89
2019-05-15T12:25:10.175Z,18.68
2019-05-15T12:27:40.209Z,18.50
2019-05-15T14:47:58.133Z,18.26
2019-05-15T14:50:28.391Z,18.26
2019-05-15T14:52:58.546Z,18.83
2019-05-15T14:55:33.730Z,18.48
2019-05-15T14:57:58.809Z,18.14
2019-05-15T15:00:30.084Z,17.79
2019-05-15T15:02:58.849Z,17.49
2019-05-15T18:06:48.391Z,17.30
2019-05-15T18:09:18.657Z,17.30
2019-05-15T18:11:47.711Z,14.77
2019-05-15T18:14:16.369Z,14.65
2019-05-15T18:16:48.086Z,14.55
2019-05-15T18:19:15.659Z,14.46
2019-05-15T18:21:44.515Z,14.39
2019-05-15T18:24:13.120Z,14.30
2019-05-15T18:26:41.852Z,14.22
2019-05-15T18:29:10.327Z,14.16
2019-05-15T18:31:38.831Z,14.09
2019-05-15T18:34:08.213Z,14.00
2019-05-15T18:36:39.199Z,13.93
2019-05-15T18:39:08.466Z,13.86
2019-05-15T18:41:37.801Z,13.83
2019-05-15T18:44:06.660Z,13.80
2019-05-15T18:46:40.489Z,13.79
2019-05-15T18:49:10.954Z,13.78
2019-05-15T18:51:39.729Z,13.72
2019-05-15T18:54:08.258Z,13.64
2019-05-15T18:56:38.609Z,13.54
2019-05-15T18:59:08.529Z,13.45
2019-05-15T19:01:39.304Z,13.36
2019-05-15T19:04:08.741Z,13.29
2019-05-15T19:06:38.316Z,13.21
2019-05-15T19:09:08.573Z,13.16
2019-05-15T19:11:38.439Z,13.14
2019-05-15T19:14:08.319Z,13.10
2019-05-15T19:16:38.751Z,13.04
2019-05-15T19:19:07.758Z,12.97
2019-05-15T19:21:38.240Z,12.91
2019-05-15T19:24:07.710Z,12.86
2019-05-15T19:26:36.299Z,12.80
2019-05-15T19:29:04.924Z,12.76
2019-05-15T19:31:33.371Z,12.72
2019-05-15T19:34:01.777Z,12.64
2019-05-15T19:36:30.785Z,12.60
2019-05-15T19:38:59.236Z,12.56
2019-05-15T19:41:28.858Z,12.52
2019-05-15T19:43:58.132Z,12.47
2019-05-15T19:46:28.338Z,12.44
2019-05-15T19:48:58.173Z,12.42
2019-05-15T19:51:28.934Z,12.37
2019-05-15T19:53:58.687Z,12.32
2019-05-15T19:56:29.004Z,12.28
2019-05-15T19:58:58.206Z,12.24
2019-05-15T20:01:28.209Z,12.21
2019-05-15T20:03:58.624Z,12.19
2019-05-15T20:06:28.052Z,12.17
2019-05-15T20:08:58.560Z,12.15
2019-05-15T20:11:27.912Z,12.11
2019-05-15T20:13:58.394Z,12.10
2019-05-15T20:16:28.637Z,12.08
2019-05-15T20:18:58.300Z,12.08
2019-05-15T20:21:28.982Z,12.06
2019-05-15T20:23:58.013Z,12.06
2019-05-15T20:26:28.683Z,12.04
2019-05-15T20:28:56.970Z,12.03
2019-05-15T20:31:28.270Z,12.04
2019-05-15T20:34:05.529Z,12.02
2019-05-15T20:36:29.450Z,11.99
2019-05-15T20:38:58.781Z,11.98
2019-05-15T20:41:27.522Z,11.97
2019-05-15T20:43:58.121Z,11.95
2019-05-15T20:46:28.608Z,11.94
2019-05-15T20:48:58.110Z,11.92
2019-05-15T20:51:28.847Z,11.90
2019-05-15T20:53:57.868Z,11.88
2019-05-15T20:56:28.205Z,11.88
2019-05-15T20:58:58.245Z,11.85
2019-05-15T21:01:28.790Z,11.83
2019-05-15T21:03:59.447Z,11.80
2019-05-15T21:06:28.339Z,11.78
2019-05-15T21:08:58.206Z,11.74
2019-05-15T21:11:27.187Z,11.72
2019-05-15T21:13:58.025Z,11.69
2019-05-15T21:16:27.992Z,11.67
2019-05-15T21:18:57.784Z,11.64
2019-05-15T21:21:28.214Z,11.62
2019-05-15T21:23:57.997Z,11.60
2019-05-15T21:26:29.119Z,11.58
2019-05-15T21:28:58.655Z,11.56
2019-05-15T21:31:27.229Z,11.53
2019-05-15T21:33:55.927Z,11.49
2019-05-15T21:36:24.409Z,11.46
2019-05-15T21:38:52.902Z,11.45
2019-05-15T21:41:21.866Z,11.43
2019-05-15T21:43:50.613Z,11.39
2019-05-15T21:46:19.485Z,11.38
2019-05-15T21:48:48.838Z,11.36
2019-05-15T21:51:18.696Z,11.34
2019-05-15T21:53:47.803Z,11.32
2019-05-15T21:56:18.588Z,11.29
2019-05-15T21:58:48.285Z,11.27
2019-05-15T22:01:19.606Z,11.26
2019-05-15T22:03:48.335Z,11.21
2019-05-15T22:06:18.503Z,11.17
2019-05-15T22:08:46.962Z,11.16
2019-05-15T22:11:15.389Z,11.12
2019-05-15T22:13:43.879Z,11.09
2019-05-15T22:16:12.692Z,11.07
2019-05-15T22:18:41.424Z,11.05
2019-05-15T22:21:09.858Z,11.04
2019-05-15T22:23:38.643Z,11.01
2019-05-15T22:26:07.083Z,10.99
2019-05-15T22:28:35.527Z,10.94
2019-05-15T22:31:04.310Z,10.88
2019-05-15T22:33:32.749Z,10.83
2019-05-15T22:36:01.190Z,10.80
2019-05-15T22:38:29.830Z,10.77
2019-05-15T22:40:58.255Z,10.76
2019-05-15T22:43:28.681Z,10.75
2019-05-15T22:45:58.806Z,10.74
2019-05-15T22:48:28.719Z,10.73
2019-05-15T22:50:58.642Z,10.73
2019-05-15T22:53:28.863Z,10.72
2019-05-15T22:55:58.785Z,10.74
2019-05-15T22:58:28.138Z,10.73
2019-05-15T23:00:59.726Z,10.74
2019-05-15T23:03:28.179Z,10.72
2019-05-15T23:05:58.168Z,10.71
2019-05-15T23:08:28.949Z,10.70
2019-05-15T23:10:58.728Z,10.67
2019-05-15T23:13:28.557Z,10.65
2019-05-15T23:15:58.451Z,10.63
2019-05-15T23:18:29.931Z,10.62
2019-05-15T23:20:59.458Z,10.61
2019-05-15T23:23:28.588Z,10.60
2019-05-15T23:25:57.836Z,10.58
2019-05-15T23:28:28.160Z,10.57
2019-05-15T23:30:57.710Z,10.53
2019-05-15T23:33:28.265Z,10.47
2019-05-15T23:35:58.750Z,10.41
2019-05-15T23:38:27.982Z,10.37
2019-05-15T23:40:58.763Z,10.35
2019-05-15T23:43:28.275Z,10.32
2019-05-15T23:45:58.823Z,10.33
2019-05-15T23:48:28.436Z,10.30
2019-05-15T23:50:59.133Z,10.31
2019-05-15T23:53:28.851Z,10.29
2019-05-15T23:55:58.775Z,10.29
2019-05-15T23:58:29.129Z,10.29
